Time;durP1;ratioP1;P1;durP2;ratioP2;P2;SDS_P1;SDS_P2;PMS_P1;PMS_P2;Temp;Humidity;BMP_temperature;BMP_pressure;BME280_temperature;BME280_humidity;BME280_pressure;Samples;Min_cycle;Max_cycle;Signal;HPM_P1;HPM_P2
2022/05/24 00:01:31;;;;;;;4.93;3.17;;;435.40;2355.20;;;;;;5010368;28;20030;-58
2022/05/24 00:03:57;;;;;;;4.60;3.30;;;435.50;2355.20;;;;;;5010312;28;20026;-56
2022/05/24 00:06:27;;;;;;;4.65;3.10;;;435.50;2355.20;;;;;;5010418;28;20018;-59
2022/05/24 00:08:53;;;;;;;6.10;3.63;;;435.60;2355.20;;;;;;5010658;28;20100;-58
2022/05/24 00:11:19;;;;;;;4.82;2.85;;;435.60;2355.20;;;;;;5010244;28;20468;-58
2022/05/24 00:13:45;;;;;;;4.93;3.05;;;435.70;2355.20;;;;;;5010282;28;20500;-57
2022/05/24 00:16:10;;;;;;;4.97;3.20;;;435.60;2355.20;;;;;;5010208;28;20061;-56
2022/05/24 00:18:36;;;;;;;4.90;3.13;;;435.70;2355.20;;;;;;5010094;28;20017;-58
2022/05/24 00:21:04;;;;;;;5.13;2.92;;;435.80;2355.20;;;;;;5010155;28;20422;-55
2022/05/24 00:23:30;;;;;;;3.92;2.95;;;435.80;2355.20;;;;;;5009869;28;20113;-58
2022/05/24 00:25:59;;;;;;;4.25;2.70;;;435.70;2355.20;;;;;;5010009;28;20128;-56
2022/05/24 00:28:28;;;;;;;5.57;3.17;;;435.70;2355.20;;;;;;5010030;28;20372;-56
2022/05/24 00:30:54;;;;;;;5.88;2.47;;;435.80;2355.20;;;;;;5010204;28;20048;-58
2022/05/24 00:33:21;;;;;;;5.05;2.88;;;436.00;2355.20;;;;;;5010361;28;20416;-59
2022/05/24 00:35:48;;;;;;;4.50;3.13;;;436.10;2355.20;;;;;;5009739;28;20034;-59
2022/05/24 00:38:20;;;;;;;4.03;2.67;;;460.80;2380.80;;;;;;5010131;28;20421;-61
2022/05/24 00:40:46;;;;;;;5.50;2.97;;;460.80;2380.80;;;;;;5009699;28;20038;-58
2022/05/24 00:43:38;;;;;;;4.15;2.92;;;460.80;2380.80;;;;;;5012330;28;20068;-57
2022/05/24 00:46:11;;;;;;;4.10;2.88;;;460.90;2380.80;;;;;;4995803;28;20053;-58
2022/05/24 00:48:45;;;;;;;;;;;461.00;2380.80;;;;;;5014136;28;20076;-57
2022/05/24 00:51:15;;;;;;;7.22;2.90;;;461.10;2380.80;;;;;;5013736;28;19912;-56
2022/05/24 00:53:45;;;;;;;4.55;3.33;;;461.10;2380.80;;;;;;5013471;28;20034;-58
2022/05/24 00:56:17;;;;;;;5.68;3.30;;;461.00;2380.80;;;;;;5013545;28;20132;-58
2022/05/24 00:58:59;;;;;;;7.65;2.83;;;461.20;2380.80;;;;;;5013482;28;20022;-58
2022/05/24 01:01:39;;;;;;;7.15;2.80;;;461.10;2380.80;;;;;;5013223;28;20499;-55
2022/05/24 01:04:08;;;;;;;9.93;3.28;;;461.10;2380.80;;;;;;5013217;28;20061;-54
2022/05/24 01:06:34;;;;;;;5.80;3.28;;;461.10;2380.80;;;;;;5013496;28;20022;-56
2022/05/24 01:09:05;;;;;;;3.83;2.75;;;461.00;2380.80;;;;;;5013460;28;20081;-54
2022/05/24 01:11:36;;;;;;;6.15;2.92;;;460.90;2380.80;;;;;;5013310;28;20026;-57
2022/05/24 01:14:03;;;;;;;5.93;3.20;;;460.80;2380.80;;;;;;5013237;28;20361;-56
2022/05/24 01:16:29;;;;;;;5.13;3.30;;;460.80;2380.80;;;;;;5013213;28;20033;-56
2022/05/24 01:18:55;;;;;;;4.63;3.10;;;460.80;2380.80;;;;;;5013014;28;20022;-58
2022/05/24 01:21:21;;;;;;;5.00;2.72;;;436.10;2355.20;;;;;;5013261;28;20126;-57
2022/05/24 01:24:34;;;;;;;4.80;3.05;;;436.00;2355.20;;;;;;5012867;28;20034;-58
2022/05/24 01:27:00;;;;;;;6.88;3.55;;;436.00;2355.20;;;;;;4914232;29;20474;-58
2022/05/24 01:29:26;;;;;;;5.60;3.20;;;436.00;2355.20;;;;;;4914371;29;20028;-57
2022/05/24 01:37:24;;;;;;;5.80;3.58;;;435.90;2355.20;;;;;;4914549;29;20139;-56
2022/05/24 01:39:55;;;;;;;6.18;3.22;;;435.70;2355.20;;;;;;4914376;29;20028;-53
2022/05/24 01:42:23;;;;;;;4.38;3.30;;;435.50;2355.20;;;;;;4914306;29;20039;-55
2022/05/24 01:45:16;;;;;;;4.57;2.80;;;435.20;2355.20;;;;;;4914132;29;20051;-56
2022/05/24 01:47:44;;;;;;;5.07;3.20;;;435.30;2355.20;;;;;;4914153;29;20063;-57
2022/05/24 01:50:15;;;;;;;5.20;3.15;;;435.30;2355.20;;;;;;4913907;29;20028;-55
2022/05/24 01:52:55;;;;;;;4.07;3.05;;;435.30;2355.20;;;;;;4913981;29;20032;-57
2022/05/24 01:55:46;;;;;;;4.38;3.05;;;435.30;2355.20;;;;;;4913161;29;20056;-57
2022/05/24 01:58:16;;;;;;;5.90;3.05;;;435.30;2355.20;;;;;;4987315;28;20034;-56
2022/05/24 02:00:46;;;;;;;4.75;3.30;;;435.30;2355.20;;;;;;5012401;28;20104;-57
2022/05/24 02:03:12;;;;;;;4.82;2.90;;;410.40;2355.20;;;;;;5012474;28;20373;-55
2022/05/24 02:05:41;;;;;;;6.10;3.58;;;410.30;2355.20;;;;;;5012131;28;20026;-56
2022/05/24 02:08:09;;;;;;;6.07;3.33;;;410.20;2355.20;;;;;;5012113;28;20022;-55
2022/05/24 02:11:01;;;;;;;5.68;3.03;;;410.10;2355.20;;;;;;5012706;28;20949;-55
2022/05/24 02:13:38;;;;;;;3.33;2.63;;;410.00;2355.20;;;;;;5012042;28;20049;-55
2022/05/24 02:16:10;;;;;;;5.80;3.10;;;410.10;2355.20;;;;;;5012111;28;20038;-53
2022/05/24 02:18:39;;;;;;;6.65;3.33;;;410.00;2355.20;;;;;;5011992;28;20123;-55
2022/05/24 02:21:05;;;;;;;5.50;3.20;;;409.90;2355.20;;;;;;5012312;28;20780;-54
2022/05/24 02:23:43;;;;;;;3.25;2.53;;;409.90;2355.20;;;;;;5012220;28;20562;-55
2022/05/24 02:26:11;;;;;;;5.50;3.45;;;409.90;2355.20;;;;;;5011450;28;20381;-55
2022/05/24 02:28:37;;;;;;;4.65;3.22;;;409.80;2355.20;;;;;;5011813;28;20053;-54
2022/05/24 02:31:13;;;;;;;5.43;3.30;;;409.80;2355.20;;;;;;5011832;28;20478;-55
2022/05/24 02:33:39;;;;;;;5.90;3.17;;;409.80;2355.20;;;;;;5011585;28;20049;-54
2022/05/24 02:36:06;;;;;;;4.88;2.88;;;409.70;2355.20;;;;;;5011622;28;20044;-55
2022/05/24 02:38:32;;;;;;;7.18;3.03;;;409.90;2355.20;;;;;;5011841;28;20032;-56
2022/05/24 02:43:43;;;;;;;4.25;2.58;;;409.90;2355.20;;;;;;5011863;28;20096;-55
2022/05/24 02:46:10;;;;;;;4.85;3.47;;;409.90;2355.20;;;;;;5011606;28;20021;-56
2022/05/24 02:48:36;;;;;;;4.63;3.20;;;410.10;2355.20;;;;;;5011377;28;20025;-60
2022/05/24 02:51:10;;;;;;;6.25;3.45;;;410.10;2355.20;;;;;;5011384;28;20060;-59
2022/05/24 02:53:36;;;;;;;4.30;3.17;;;410.00;2355.20;;;;;;5011022;28;20226;-58
2022/05/24 02:56:06;;;;;;;5.63;3.38;;;410.10;2355.20;;;;;;5011350;28;20400;-61
2022/05/24 02:58:32;;;;;;;5.80;3.30;;;410.20;2355.20;;;;;;5011361;28;20468;-58
2022/05/24 03:00:58;;;;;;;5.20;2.80;;;410.10;2355.20;;;;;;5011304;28;20030;-63
2022/05/24 03:03:23;;;;;;;4.97;2.90;;;410.10;2355.20;;;;;;5011160;28;20523;-56
2022/05/24 03:05:49;;;;;;;5.40;3.30;;;410.10;2355.20;;;;;;5011136;28;20119;-58
2022/05/24 03:10:59;;;;;;;3.88;2.92;;;410.00;2355.20;;;;;;5010879;28;20045;-63
2022/05/24 03:16:11;;;;;;;6.25;3.20;;;409.90;2355.20;;;;;;5011039;28;20502;-63
2022/05/24 03:18:37;;;;;;;5.45;3.20;;;410.10;2355.20;;;;;;5011026;28;20022;-60
2022/05/24 03:21:03;;;;;;;4.63;3.05;;;410.20;2355.20;;;;;;5010894;28;20133;-63
2022/05/24 03:23:29;;;;;;;3.97;3.28;;;410.30;2355.20;;;;;;5010549;28;20038;-60
2022/05/24 03:25:55;;;;;;;4.82;3.05;;;410.40;2355.20;;;;;;5010713;28;20233;-58
2022/05/24 03:28:21;;;;;;;8.35;3.50;;;410.40;2355.20;;;;;;5010819;28;20460;-57
2022/05/24 03:30:47;;;;;;;5.97;3.00;;;410.50;2355.20;;;;;;5010614;28;20037;-57
2022/05/24 03:33:13;;;;;;;5.68;2.95;;;435.20;2355.20;;;;;;5010733;28;20034;-58
2022/05/24 03:35:40;;;;;;;5.82;3.08;;;435.30;2355.20;;;;;;5010364;28;20519;-57
2022/05/24 03:38:07;;;;;;;8.00;3.28;;;435.20;2355.20;;;;;;5010499;28;20030;-58
2022/05/24 03:40:34;;;;;;;6.20;2.80;;;410.50;2355.20;;;;;;5010653;28;20026;-58
2022/05/24 03:43:01;;;;;;;4.55;3.10;;;410.50;2355.20;;;;;;5010470;28;20033;-56
2022/05/24 03:45:28;;;;;;;6.53;3.78;;;410.50;2355.20;;;;;;5010293;28;20037;-58
2022/05/24 03:47:54;;;;;;;7.05;3.47;;;435.20;2355.20;;;;;;5010699;28;20022;-58
2022/05/24 03:50:22;;;;;;;8.25;4.00;;;435.40;2355.20;;;;;;5010472;28;20504;-57
2022/05/24 03:52:48;;;;;;;5.55;4.22;;;435.60;2355.20;;;;;;5010208;28;20104;-57
2022/05/24 03:55:15;;;;;;;6.07;3.80;;;435.70;2355.20;;;;;;5010335;28;20045;-58
2022/05/24 03:58:00;;;;;;;6.38;3.70;;;435.90;2355.20;;;;;;5010478;28;20034;-57
2022/05/24 04:00:27;;;;;;;8.80;3.63;;;436.00;2355.20;;;;;;5010259;28;20117;-58
2022/05/24 04:02:53;;;;;;;8.18;3.67;;;436.00;2355.20;;;;;;5010459;28;20025;-58
2022/05/24 04:05:19;;;;;;;5.05;3.28;;;460.80;2380.80;;;;;;5010225;28;20026;-57
2022/05/24 04:07:44;;;;;;;5.53;3.70;;;461.00;2380.80;;;;;;5010286;28;20096;-58
2022/05/24 04:10:12;;;;;;;9.57;3.78;;;461.10;2380.80;;;;;;5010355;28;20033;-56
2022/05/24 04:12:38;;;;;;;5.78;3.70;;;461.10;2380.80;;;;;;5010375;28;20373;-57
2022/05/24 04:15:04;;;;;;;6.03;3.90;;;461.00;2380.80;;;;;;5010236;28;20120;-58
2022/05/24 04:17:30;;;;;;;4.80;3.65;;;461.10;2380.80;;;;;;5011521;28;20480;-57
2022/05/24 04:19:56;;;;;;;4.50;3.38;;;461.40;2380.80;;;;;;5014167;28;20048;-56
2022/05/24 04:22:22;;;;;;;5.50;3.80;;;461.60;2380.80;;;;;;5014241;28;20033;-57
2022/05/24 04:24:47;;;;;;;7.53;4.45;;;486.40;2380.80;;;;;;5013589;28;20468;-56
2022/05/24 04:27:13;;;;;;;6.00;3.70;;;486.70;2380.80;;;;;;5014355;28;20041;-56
2022/05/24 04:29:41;;;;;;;6.35;4.00;;;487.00;2380.80;;;;;;5013944;28;20045;-56
2022/05/24 04:32:08;;;;;;;6.03;3.22;;;487.20;2380.80;;;;;;5014027;28;20092;-56
2022/05/24 04:34:34;;;;;;;8.45;4.03;;;512.10;2380.80;;;;;;5014039;28;20037;-57
2022/05/24 04:37:00;;;;;;;5.35;3.25;;;512.80;2380.80;;;;;;5013701;28;20380;-54
2022/05/24 04:39:26;;;;;;;4.93;3.25;;;538.10;2406.40;;;;;;5013776;28;20109;-54
2022/05/24 04:44:36;;;;;;;6.57;3.42;;;512.90;2380.80;;;;;;5014017;28;20080;-54
2022/05/24 04:47:08;;;;;;;5.72;3.95;;;512.40;2380.80;;;;;;5014208;28;20022;-55
2022/05/24 04:49:35;;;;;;;4.95;3.63;;;512.30;2380.80;;;;;;5014185;28;20112;-54
2022/05/24 04:52:01;;;;;;;5.78;3.97;;;512.30;2380.80;;;;;;5014072;28;20105;-58
2022/05/24 04:54:27;;;;;;;6.30;4.07;;;512.20;2380.80;;;;;;5013766;28;20042;-55
2022/05/24 04:56:53;;;;;;;7.50;3.72;;;512.00;2380.80;;;;;;5013964;28;20488;-54
2022/05/24 04:59:18;;;;;;;6.65;3.85;;;512.00;2380.80;;;;;;5013645;28;20030;-56
2022/05/24 05:01:45;;;;;;;8.95;4.03;;;512.20;2380.80;;;;;;5013538;28;20033;-53
2022/05/24 05:04:11;;;;;;;7.07;3.78;;;512.50;2380.80;;;;;;5013637;28;20034;-54
2022/05/24 05:06:42;;;;;;;6.28;4.10;;;512.70;2380.80;;;;;;5013123;28;20468;-54
2022/05/24 05:09:09;;;;;;;5.53;3.92;;;537.80;2406.40;;;;;;5013132;28;20033;-57
2022/05/24 05:11:35;;;;;;;8.98;4.20;;;538.10;2406.40;;;;;;5013659;28;20032;-57
2022/05/24 05:14:00;;;;;;;6.88;4.13;;;538.20;2406.40;;;;;;4995938;28;20029;-55
2022/05/24 05:16:26;;;;;;;7.10;4.45;;;538.20;2406.40;;;;;;5013180;28;20049;-57
2022/05/24 05:18:52;;;;;;;5.07;4.28;;;563.70;2432.00;;;;;;5013440;28;20033;-64
2022/05/24 05:21:17;;;;;;;7.43;4.25;;;563.40;2432.00;;;;;;5012979;28;20022;-64
2022/05/24 05:23:43;;;;;;;10.02;4.90;;;563.70;2432.00;;;;;;5013038;28;20469;-64
2022/05/24 05:26:09;;;;;;;5.82;5.07;;;614.70;2432.00;;;;;;5012802;28;20058;-66
2022/05/24 05:28:34;;;;;;;5.65;3.83;;;717.00;1868.80;;;;;;5012125;28;20026;-65
2022/05/24 05:34:04;;;;;;;;;;;819.20;1510.40;;;;;;4953008;29;20131;-62
2022/05/24 05:36:31;;;;;;;6.53;4.78;;;845.40;1408.00;;;;;;4952101;29;19914;-66
2022/05/24 05:38:58;;;;;;;4.68;4.13;;;871.10;1305.60;;;;;;4952275;29;20047;-66
2022/05/24 05:41:29;;;;;;;6.97;4.80;;;921.70;1254.40;;;;;;4952570;29;20039;-67
2022/05/24 05:43:56;;;;;;;4.75;4.30;;;922.10;1228.80;;;;;;4952347;29;20046;-66
2022/05/24 05:46:22;;;;;;;5.03;4.55;;;947.70;1177.60;;;;;;4952437;29;20046;-66
2022/05/24 05:48:48;;;;;;;6.50;5.53;;;972.90;1177.60;;;;;;4952219;29;20031;-67
2022/05/24 05:51:16;;;;;;;5.65;5.13;;;998.70;1126.40;;;;;;4952241;29;20479;-66
2022/05/24 05:53:43;;;;;;;6.50;5.82;;;998.80;1126.40;;;;;;4952057;29;20514;-66
2022/05/24 05:56:17;;;;;;;8.05;7.35;;;1024.10;1075.20;;;;;;4952084;29;20039;-65
2022/05/24 05:58:43;;;;;;;6.40;5.80;;;1049.80;1049.60;;;;;;4952083;29;20035;-66
2022/05/24 06:01:19;;;;;;;6.60;4.80;;;1050.40;1049.60;;;;;;4951957;29;20027;-66
2022/05/24 06:03:45;;;;;;;6.65;5.90;;;1075.90;998.40;;;;;;4955737;28;20359;-68
2022/05/24 06:06:16;;;;;;;5.97;5.38;;;1075.60;998.40;;;;;;5012230;28;20028;-66
2022/05/24 06:08:42;;;;;;;6.45;5.72;;;1075.70;998.40;;;;;;5012527;28;20030;-66
2022/05/24 06:11:07;;;;;;;6.35;5.75;;;1075.70;998.40;;;;;;5011969;28;20026;-69
2022/05/24 06:13:33;;;;;;;6.78;6.07;;;1075.80;998.40;;;;;;5012583;28;20026;-66
2022/05/24 06:15:59;;;;;;;7.00;6.40;;;1101.20;998.40;;;;;;5011995;28;20038;-66
2022/05/24 06:18:25;;;;;;;7.68;6.88;;;1101.50;998.40;;;;;;5012334;28;20026;-67
2022/05/24 06:20:51;;;;;;;7.65;7.05;;;1126.90;972.80;;;;;;5012481;28;20036;-66
2022/05/24 06:23:16;;;;;;;12.65;9.02;;;1152.40;921.60;;;;;;5011895;28;20041;-66
2022/05/24 06:25:42;;;;;;;7.55;6.95;;;1152.20;947.20;;;;;;5011735;28;20060;-66
2022/05/24 06:28:15;;;;;;;7.97;7.38;;;1152.90;921.60;;;;;;5011883;28;20029;-66
2022/05/24 06:30:41;;;;;;;;;;;1178.50;870.40;;;;;;5012439;28;20030;-66
2022/05/24 06:33:07;;;;;;;7.82;7.13;;;1203.80;870.40;;;;;;5012025;28;19905;-67
2022/05/24 06:35:35;;;;;;;8.18;7.50;;;1203.90;870.40;;;;;;5012043;28;20173;-66
2022/05/24 06:38:01;;;;;;;7.60;6.90;;;1204.10;844.80;;;;;;5011873;28;20026;-67
2022/05/24 06:40:27;;;;;;;8.90;8.18;;;;;;;;;;5011216;28;20026;-66
2022/05/24 06:42:52;;;;;;;8.85;8.20;;;1204.10;844.80;;;;;;5011845;28;20084;-66
2022/05/24 06:45:18;;;;;;;9.88;9.02;;;1228.80;896.00;;;;;;5011156;28;20022;-65
2022/05/24 06:47:44;;;;;;;9.45;8.65;;;1229.40;870.40;;;;;;5011533;28;20040;-64
2022/05/24 06:50:12;;;;;;;8.30;7.68;;;1229.20;870.40;;;;;;5011647;28;20121;-66
2022/05/24 06:52:38;;;;;;;9.55;8.90;;;1204.10;844.80;;;;;;5011320;28;20022;-66
2022/05/24 06:55:06;;;;;;;8.85;8.15;;;1203.70;870.40;;;;;;5011102;28;20515;-66
2022/05/24 06:57:31;;;;;;;7.15;6.53;;;1203.60;896.00;;;;;;5011367;28;20018;-66
2022/05/24 07:02:41;;;;;;;8.32;7.55;;;998.90;1126.40;;;;;;5011641;28;20109;-64
2022/05/24 07:05:14;;;;;;;6.22;5.47;;;1024.00;1075.20;;;;;;5011040;28;20104;-65
2022/05/24 07:07:40;;;;;;;;;;;973.70;1126.40;;;;;;5011362;28;20026;-65
2022/05/24 07:10:09;;;;;;;6.93;5.90;;;998.90;1100.80;;;;;;5010979;28;19905;-66
2022/05/24 07:12:35;;;;;;;8.15;7.45;;;947.80;1177.60;;;;;;5011257;28;20022;-65
2022/05/24 07:15:01;;;;;;;9.20;8.50;;;1050.00;1049.60;;;;;;5011047;28;20021;-66
2022/05/24 07:17:27;;;;;;;8.95;8.32;;;1126.70;972.80;;;;;;5010960;28;20083;-66
2022/05/24 07:19:53;;;;;;;8.73;7.88;;;1127.10;972.80;;;;;;5011155;28;20110;-66
2022/05/24 07:22:19;;;;;;;9.05;8.30;;;1177.70;921.60;;;;;;5011084;28;20022;-66
2022/05/24 07:24:48;;;;;;;8.70;8.02;;;1203.60;896.00;;;;;;5010710;28;20124;-66
2022/05/24 07:27:17;;;;;;;9.77;9.02;;;1229.20;870.40;;;;;;5010884;28;20052;-65
2022/05/24 07:29:43;;;;;;;9.90;9.20;;;1228.90;896.00;;;;;;5010911;28;20025;-66
2022/05/24 07:32:09;;;;;;;10.70;10.00;;;1203.80;844.80;;;;;;5010820;28;20018;-66
2022/05/24 07:34:36;;;;;;;9.88;9.15;;;1254.80;870.40;;;;;;5011143;28;20383;-66
2022/05/24 07:37:04;;;;;;;10.82;9.93;;;1254.90;844.80;;;;;;5010810;28;20041;-65
2022/05/24 07:39:32;;;;;;;10.07;9.38;;;1204.10;870.40;;;;;;5010566;28;20050;-65
2022/05/24 07:47:32;;;;;;;10.57;9.68;;;1126.90;972.80;;;;;;5010957;28;20115;-65
2022/05/24 07:49:58;;;;;;;10.48;9.57;;;1178.20;870.40;;;;;;5010346;28;20488;-65
2022/05/24 07:52:24;;;;;;;10.68;9.77;;;1178.20;870.40;;;;;;5009661;28;20380;-66
2022/05/24 07:54:51;;;;;;;10.57;9.65;;;1203.40;870.40;;;;;;5010291;28;20030;-66
2022/05/24 07:57:17;;;;;;;11.55;10.85;;;1203.40;870.40;;;;;;5010318;28;20042;-66
2022/05/24 07:59:47;;;;;;;11.75;10.70;;;1203.90;844.80;;;;;;5010440;28;20558;-65
2022/05/24 08:02:17;;;;;;;10.82;9.85;;;1203.60;870.40;;;;;;5010516;28;20072;-65
2022/05/24 08:04:43;;;;;;;10.43;9.63;;;1152.40;896.00;;;;;;5010364;28;20026;-65
2022/05/24 08:07:09;;;;;;;10.63;9.93;;;1203.60;844.80;;;;;;5010001;28;20026;-65
2022/05/24 08:09:35;;;;;;;9.40;8.70;;;1203.70;870.40;;;;;;5010549;28;20445;-65
2022/05/24 08:12:01;;;;;;;9.25;8.65;;;1228.90;844.80;;;;;;5010266;28;20431;-65
2022/05/24 08:14:27;;;;;;;9.10;8.50;;;1228.80;844.80;;;;;;5010165;28;20034;-65
2022/05/24 08:16:53;;;;;;;8.68;8.13;;;1178.00;870.40;;;;;;5010282;28;20036;-64
2022/05/24 08:19:18;;;;;;;8.70;7.25;;;1101.70;921.60;;;;;;5010099;28;20057;-65
2022/05/24 08:21:44;;;;;;;5.75;5.03;;;1075.20;947.20;;;;;;5010214;28;20029;-64
2022/05/24 08:24:10;;;;;;;5.65;5.15;;;1024.00;1049.60;;;;;;5009913;28;20439;-63
2022/05/24 08:26:37;;;;;;;4.40;4.00;;;998.70;1049.60;;;;;;5009955;28;20129;-64
2022/05/24 08:29:03;;;;;;;4.97;4.47;;;973.50;1024.00;;;;;;5010339;28;20030;-64
2022/05/24 08:31:29;;;;;;;5.50;4.75;;;948.10;1049.60;;;;;;5010080;28;20026;-63
2022/05/24 08:33:55;;;;;;;5.05;4.50;;;947.90;1049.60;;;;;;5010324;28;20041;-64
2022/05/24 08:36:20;;;;;;;5.32;4.40;;;947.50;1075.20;;;;;;5010062;28;20095;-65
2022/05/24 08:38:46;;;;;;;4.53;4.07;;;947.30;1075.20;;;;;;5009771;28;20032;-65
2022/05/24 08:41:28;;;;;;;5.93;4.03;;;922.10;1075.20;;;;;;5010131;28;20037;-64
2022/05/24 08:49:59;;;;;;;4.25;3.70;;;921.60;1100.80;;;;;;5010043;28;20033;-64
2022/05/24 08:52:36;;;;;;;6.13;4.20;;;921.80;1075.20;;;;;;5010061;28;20461;-65
2022/05/24 08:55:02;;;;;;;5.47;4.05;;;922.00;1075.20;;;;;;5009751;28;20045;-64
2022/05/24 08:57:42;;;;;;;4.38;3.97;;;922.50;1049.60;;;;;;5009784;28;20394;-64
2022/05/24 09:00:13;;;;;;;4.60;4.20;;;922.10;1075.20;;;;;;5009580;28;20029;-64
2022/05/24 09:02:45;;;;;;;5.28;3.58;;;922.00;1049.60;;;;;;5011863;28;20018;-63
2022/05/24 09:05:18;;;;;;;4.18;3.78;;;921.80;1075.20;;;;;;5020874;28;20109;-64
2022/05/24 09:08:02;;;;;;;4.43;4.00;;;922.00;1049.60;;;;;;5021776;28;20033;-63
2022/05/24 09:11:07;;;;;;;3.95;3.55;;;922.00;1075.20;;;;;;5019195;28;20045;-63
2022/05/24 09:13:39;;;;;;;4.80;3.75;;;922.00;1075.20;;;;;;4932797;29;20027;-63
2022/05/24 09:16:15;;;;;;;5.00;4.00;;;896.90;1075.20;;;;;;4932742;29;20046;-64
2022/05/24 09:19:04;;;;;;;4.93;3.92;;;896.90;1075.20;;;;;;4933809;29;20096;-65
2022/05/24 09:21:33;;;;;;;5.07;4.20;;;896.70;1075.20;;;;;;4933295;29;20063;-64
2022/05/24 09:24:37;;;;;;;4.13;3.10;;;896.10;1100.80;;;;;;4933283;29;20036;-64
2022/05/24 09:27:22;;;;;;;4.07;3.25;;;896.00;1100.80;;;;;;4923416;29;20150;-64
2022/05/24 09:30:04;;;;;;;4.40;3.30;;;871.20;1126.40;;;;;;4933373;29;20032;-63
2022/05/24 09:32:40;;;;;;;5.03;3.55;;;871.20;1100.80;;;;;;4933187;29;20509;-64
2022/05/24 09:35:09;;;;;;;4.20;3.30;;;871.10;1100.80;;;;;;4933150;29;20038;-64
2022/05/24 09:37:36;;;;;;;6.65;4.00;;;870.90;1177.60;;;;;;4933155;29;20494;-64
2022/05/24 09:40:25;;;;;;;6.35;4.38;;;870.90;1075.20;;;;;;4933446;29;20063;-64
2022/05/24 09:42:51;;;;;;;5.22;3.42;;;870.90;1126.40;;;;;;4932577;29;20038;-64
2022/05/24 09:45:24;;;;;;;5.13;3.78;;;845.40;1152.00;;;;;;4932544;29;20032;-64
2022/05/24 09:47:58;;;;;;;4.93;3.58;;;845.60;1152.00;;;;;;4930335;29;20528;-64
2022/05/24 09:50:37;;;;;;;4.07;3.58;;;845.70;1126.40;;;;;;4974952;28;20100;-64
2022/05/24 09:53:03;;;;;;;5.20;3.58;;;870.50;1100.80;;;;;;5012479;28;20026;-62
2022/05/24 09:55:40;;;;;;;3.63;2.92;;;870.60;1100.80;;;;;;5012381;28;20050;-64
2022/05/24 09:58:22;;;;;;;4.00;3.17;;;870.60;1100.80;;;;;;5012241;28;20484;-63
2022/05/24 10:00:51;;;;;;;4.22;3.10;;;870.50;1100.80;;;;;;5014723;28;20028;-62
2022/05/24 10:03:26;;;;;;;4.00;2.92;;;870.40;1100.80;;;;;;5022720;28;20021;-63
2022/05/24 10:06:28;;;;;;;5.05;3.80;;;870.50;1075.20;;;;;;5028152;28;20022;-64
2022/05/24 10:09:00;;;;;;;6.68;3.10;;;870.50;1126.40;;;;;;5023380;28;20058;-63
2022/05/24 10:11:48;;;;;;;3.75;3.25;;;845.70;1100.80;;;;;;5012118;28;20100;-65
2022/05/24 10:15:02;;;;;;;3.45;2.85;;;845.70;1100.80;;;;;;5011948;28;20538;-65
2022/05/24 10:18:05;;;;;;;5.03;3.20;;;845.20;1100.80;;;;;;4931508;29;20130;-64
2022/05/24 10:21:35;;;;;;;6.70;3.13;;;845.40;1152.00;;;;;;4929404;29;20028;-64
2022/05/24 10:24:18;;;;;;;6.00;3.63;;;845.40;1100.80;;;;;;4875530;29;20435;-64
2022/05/24 10:26:44;;;;;;;4.22;3.65;;;845.20;1177.60;;;;;;4840879;29;20058;-64
2022/05/24 10:29:28;;;;;;;5.75;3.75;;;845.20;1177.60;;;;;;4843887;29;20124;-63
2022/05/24 10:32:02;;;;;;;5.32;4.05;;;845.40;1203.20;;;;;;4857009;29;20044;-65
2022/05/24 10:40:52;;;;;;;3.72;3.08;;;845.30;1152.00;;;;;;4857266;29;20070;-64
2022/05/24 10:43:49;;;;;;;5.95;3.05;;;845.20;1152.00;;;;;;4856916;29;20137;-64
2022/05/24 10:46:20;;;;;;;4.10;2.95;;;845.40;1203.20;;;;;;4838672;29;20038;-64
2022/05/24 10:49:11;;;;;;;4.03;3.40;;;845.60;1177.60;;;;;;4838417;29;20512;-64
2022/05/24 10:51:52;;;;;;;5.43;3.53;;;845.40;1177.60;;;;;;4801895;29;20072;-64
2022/05/24 10:54:35;;;;;;;4.13;3.55;;;844.80;1203.20;;;;;;4834353;29;20041;-64
2022/05/24 10:57:09;;;;;;;;;;;845.20;1254.40;;;;;;4875028;29;20137;-63
2022/05/24 11:00:03;;;;;;;7.70;4.35;;;819.70;1305.60;;;;;;4872949;29;20004;-65
2022/05/24 11:02:53;;;;;;;4.85;3.65;;;794.50;1382.40;;;;;;4874348;29;20440;-63
2022/05/24 11:05:24;;;;;;;6.10;4.95;;;819.60;1356.80;;;;;;4873110;29;20119;-63
2022/05/24 11:07:59;;;;;;;6.60;4.07;;;819.30;1382.40;;;;;;4874402;29;20033;-64
2022/05/24 11:10:39;;;;;;;7.38;4.38;;;794.40;1382.40;;;;;;4873915;29;20045;-64
2022/05/24 11:13:14;;;;;;;10.45;5.03;;;794.50;1356.80;;;;;;4873083;29;20029;-65
2022/05/24 11:15:45;;;;;;;8.75;5.45;;;819.30;1356.80;;;;;;4873049;29;20049;-66
2022/05/24 11:18:20;;;;;;;5.43;4.18;;;819.60;1356.80;;;;;;4872998;29;20037;-66
2022/05/24 11:21:10;;;;;;;8.48;4.65;;;819.90;1331.20;;;;;;4875125;29;20048;-66
2022/05/24 11:23:48;;;;;;;5.03;4.30;;;819.40;1356.80;;;;;;4909437;29;20040;-66
2022/05/24 11:26:21;;;;;;;5.05;4.15;;;794.30;1382.40;;;;;;4910452;29;20056;-64
2022/05/24 11:28:58;;;;;;;5.93;4.43;;;819.30;1382.40;;;;;;4966044;28;20065;-65
2022/05/24 11:31:35;;;;;;;4.63;3.95;;;794.50;1356.80;;;;;;5009283;28;20436;-63
2022/05/24 11:34:08;;;;;;;4.95;3.75;;;819.50;1331.20;;;;;;5009254;28;20510;-63
2022/05/24 11:36:36;;;;;;;6.10;3.97;;;819.80;1408.00;;;;;;5009003;28;20044;-65
2022/05/24 11:39:11;;;;;;;5.47;4.00;;;820.00;1382.40;;;;;;5008964;28;20028;-64
2022/05/24 11:41:37;;;;;;;7.07;4.68;;;819.70;1356.80;;;;;;5009244;28;20029;-65
2022/05/24 11:44:07;;;;;;;5.28;4.78;;;819.70;1382.40;;;;;;5009284;28;20028;-64
2022/05/24 11:46:45;;;;;;;5.68;4.50;;;819.60;1356.80;;;;;;5009277;28;20029;-64
2022/05/24 11:49:24;;;;;;;5.43;4.35;;;819.70;1356.80;;;;;;5009039;28;20472;-64
2022/05/24 11:51:57;;;;;;;6.93;4.50;;;819.60;1331.20;;;;;;5008295;28;20038;-65
2022/05/24 11:54:27;;;;;;;4.63;4.13;;;819.80;1356.80;;;;;;5008948;28;20026;-66
2022/05/24 11:57:02;;;;;;;5.05;4.55;;;819.90;1331.20;;;;;;5008879;28;20530;-66
2022/05/24 11:59:40;;;;;;;5.60;4.28;;;819.90;1331.20;;;;;;5008928;28;20022;-62
2022/05/24 12:02:21;;;;;;;6.95;4.88;;;819.60;1331.20;;;;;;5008957;28;20029;-65
2022/05/24 12:07:54;;;;;;;6.03;4.32;;;819.60;1382.40;;;;;;4947922;29;20086;-65
2022/05/24 12:10:26;;;;;;;5.03;4.03;;;819.60;1331.20;;;;;;4948065;29;20098;-65
2022/05/24 12:13:04;;;;;;;6.70;4.15;;;819.60;1305.60;;;;;;4947953;29;20177;-66
2022/05/24 12:15:29;;;;;;;5.95;4.18;;;819.70;1331.20;;;;;;4947821;29;20383;-63
2022/05/24 12:17:57;;;;;;;5.85;4.22;;;819.60;1305.60;;;;;;4947614;29;20094;-65
2022/05/24 12:20:38;;;;;;;4.53;3.30;;;819.20;1356.80;;;;;;4947903;29;20035;-64
2022/05/24 12:23:06;;;;;;;6.95;4.32;;;819.30;1331.20;;;;;;4947708;29;20039;-63
2022/05/24 12:26:02;;;;;;;5.50;3.95;;;819.50;1331.20;;;;;;4947752;29;20078;-64
2022/05/24 12:28:36;;;;;;;4.90;3.60;;;819.80;1356.80;;;;;;4947757;29;20039;-66
2022/05/24 12:31:29;;;;;;;6.00;3.95;;;820.10;1331.20;;;;;;4947588;29;20023;-65
2022/05/24 12:33:58;;;;;;;6.25;4.07;;;844.80;1280.00;;;;;;4909719;29;20063;-64
2022/05/24 12:36:39;;;;;;;5.78;3.67;;;845.10;1305.60;;;;;;4909803;29;20130;-64
2022/05/24 12:39:07;;;;;;;5.03;4.38;;;845.10;1280.00;;;;;;4911857;29;20051;-65
2022/05/24 12:41:47;;;;;;;5.22;3.55;;;844.80;1305.60;;;;;;4913425;29;20067;-63
2022/05/24 12:44:25;;;;;;;5.18;3.95;;;819.70;1305.60;;;;;;4917321;29;20529;-66
2022/05/24 12:46:55;;;;;;;7.85;4.88;;;819.60;1331.20;;;;;;4932615;29;20132;-65
2022/05/24 12:49:34;;;;;;;5.00;3.75;;;819.80;1356.80;;;;;;4932467;29;20035;-67
2022/05/24 12:52:10;;;;;;;5.85;3.70;;;819.90;1331.20;;;;;;4932549;29;20399;-65
2022/05/24 12:55:01;;;;;;;5.00;4.15;;;819.80;1331.20;;;;;;4932021;29;20425;-66
2022/05/24 12:57:40;;;;;;;6.00;3.83;;;844.90;1331.20;;;;;;4931413;29;20621;-65
2022/05/24 13:00:24;;;;;;;5.45;4.00;;;844.90;1331.20;;;;;;4932072;29;20062;-66
2022/05/24 13:02:52;;;;;;;6.00;4.28;;;844.90;1331.20;;;;;;4931879;29;20689;-65
2022/05/24 13:05:28;;;;;;;4.60;4.07;;;844.80;1331.20;;;;;;4931344;29;20506;-65
2022/05/24 13:07:54;;;;;;;4.50;4.00;;;819.60;1305.60;;;;;;4912214;29;20075;-66
2022/05/24 13:10:23;;;;;;;6.07;4.28;;;819.80;1331.20;;;;;;4928092;28;20066;-65
2022/05/24 13:12:52;;;;;;;5.25;3.70;;;820.00;1305.60;;;;;;4972131;28;20027;-66
2022/05/24 13:15:37;;;;;;;4.90;4.20;;;819.90;1331.20;;;;;;4973181;28;20489;-65
2022/05/24 13:18:12;;;;;;;6.97;3.38;;;819.40;1331.20;;;;;;4973372;28;20051;-66
2022/05/24 13:20:44;;;;;;;5.05;4.30;;;819.60;1356.80;;;;;;4973502;28;20039;-65
2022/05/24 13:23:15;;;;;;;7.57;4.03;;;819.60;1356.80;;;;;;4977272;28;20027;-64